createdAt,value
2023-03-29T00:00:08.283Z,1.40
2023-03-29T00:02:35.015Z,1.60
2023-03-29T00:05:04.976Z,1.65
2023-03-29T00:07:33.557Z,1.70
2023-03-29T00:10:01.644Z,1.63
2023-03-29T00:12:28.878Z,1.63
2023-03-29T00:14:55.414Z,1.55
2023-03-29T00:17:27.735Z,1.70
2023-03-29T00:19:54.382Z,1.73
2023-03-29T00:22:21.469Z,1.60
2023-03-29T00:24:53.889Z,2.00
2023-03-29T00:27:21.908Z,1.80
2023-03-29T00:29:48.504Z,1.80
2023-03-29T00:32:24.176Z,2.00
2023-03-29T00:34:52.565Z,1.80
2023-03-29T00:37:19.327Z,1.83
2023-03-29T00:39:51.067Z,1.60
2023-03-29T00:42:17.918Z,1.77
2023-03-29T00:45:07.212Z,1.55
2023-03-29T00:47:53.935Z,1.30
2023-03-29T00:50:26.461Z,1.70
2023-03-29T00:53:02.513Z,1.40
2023-03-29T00:55:43.553Z,1.48
2023-03-29T00:58:13.959Z,1.60
2023-03-29T01:00:56.507Z,1.63
2023-03-29T01:03:36.090Z,1.67
2023-03-29T01:06:09.593Z,2.05
2023-03-29T01:08:45.392Z,1.48
2023-03-29T01:13:59.888Z,1.40
2023-03-29T01:16:28.907Z,1.80
2023-03-29T01:19:00.579Z,1.27
2023-03-29T01:21:36.479Z,1.50
2023-03-29T01:24:15.308Z,1.83
2023-03-29T01:27:24.554Z,1.52
2023-03-29T01:29:54.246Z,1.40
2023-03-29T01:32:35.556Z,1.25
2023-03-29T01:35:13.684Z,1.80
2023-03-29T01:37:50.436Z,1.50
2023-03-29T01:40:17.060Z,1.40
2023-03-29T01:43:08.382Z,1.65
2023-03-29T01:46:03.092Z,1.65
2023-03-29T01:48:31.217Z,1.90
2023-03-29T01:51:07.206Z,1.60
2023-03-29T01:53:44.021Z,1.45
2023-03-29T01:56:14.383Z,1.80
2023-03-29T01:58:49.189Z,1.50
2023-03-29T02:01:22.998Z,1.65
2023-03-29T02:03:56.410Z,1.88
2023-03-29T02:06:27.158Z,1.83
2023-03-29T02:08:55.819Z,1.75
2023-03-29T02:11:25.092Z,1.80
2023-03-29T02:13:51.629Z,1.75
2023-03-29T02:16:19.248Z,2.00
2023-03-29T02:18:50.158Z,1.73
2023-03-29T02:21:24.048Z,1.60
2023-03-29T02:23:59.336Z,1.92
2023-03-29T02:26:26.298Z,1.60
2023-03-29T02:28:53.402Z,1.52
2023-03-29T02:31:35.151Z,1.45
2023-03-29T02:34:19.212Z,1.77
2023-03-29T02:37:17.682Z,2.20
2023-03-29T02:39:47.712Z,1.70
2023-03-29T02:42:19.558Z,1.83
2023-03-29T02:44:52.484Z,2.00
2023-03-29T02:47:32.339Z,1.80
2023-03-29T02:49:59.753Z,1.60
2023-03-29T02:52:37.841Z,1.77
2023-03-29T02:55:08.418Z,1.45
2023-03-29T02:57:38.211Z,1.60
2023-03-29T03:00:09.693Z,1.92
2023-03-29T03:02:42.895Z,1.73
2023-03-29T03:05:09.618Z,1.77
2023-03-29T03:07:38.368Z,1.58
2023-03-29T03:10:05.380Z,1.70
2023-03-29T03:12:31.861Z,2.00
2023-03-29T03:14:58.602Z,1.85
2023-03-29T03:17:25.352Z,1.98
2023-03-29T03:19:56.272Z,1.70
2023-03-29T03:22:24.479Z,1.52
2023-03-29T03:24:50.938Z,1.40
2023-03-29T03:27:18.088Z,1.40
2023-03-29T03:29:49.072Z,1.58
2023-03-29T03:32:16.296Z,1.60
2023-03-29T03:34:42.845Z,1.90
2023-03-29T03:37:11.017Z,1.83
2023-03-29T03:39:37.771Z,2.30
2023-03-29T03:42:07.847Z,1.75
2023-03-29T03:44:34.786Z,1.80
2023-03-29T03:47:01.493Z,1.48
2023-03-29T03:49:28.210Z,1.30
2023-03-29T03:52:01.306Z,1.30
2023-03-29T03:54:28.058Z,1.60
2023-03-29T03:56:54.639Z,1.90
2023-03-29T03:59:22.472Z,1.60
2023-03-29T04:01:48.948Z,1.50
2023-03-29T04:04:21.486Z,1.48
2023-03-29T04:06:48.126Z,1.40
2023-03-29T04:09:14.652Z,1.30
2023-03-29T04:11:41.191Z,1.48
2023-03-29T04:14:09.533Z,1.48
2023-03-29T04:16:36.862Z,1.40
2023-03-29T04:19:03.411Z,1.33
2023-03-29T04:21:31.640Z,1.25
2023-03-29T04:23:58.135Z,1.20
2023-03-29T04:26:24.778Z,1.30
2023-03-29T04:28:53.506Z,1.13
2023-03-29T04:31:20.060Z,1.08
2023-03-29T04:33:47.528Z,1.10
2023-03-29T04:36:15.919Z,1.38
2023-03-29T04:38:48.012Z,1.17
2023-03-29T04:41:15.545Z,1.17
2023-03-29T04:43:48.423Z,1.23
2023-03-29T04:46:17.205Z,1.33
2023-03-29T04:48:43.768Z,1.10
2023-03-29T04:51:12.544Z,1.15
2023-03-29T04:53:39.045Z,1.40
2023-03-29T04:56:06.308Z,1.48
2023-03-29T04:58:41.468Z,1.25
2023-03-29T05:01:07.922Z,1.40
2023-03-29T05:03:34.397Z,1.40
2023-03-29T05:06:11.559Z,1.20
2023-03-29T05:08:40.533Z,1.23
2023-03-29T05:11:09.326Z,1.40
2023-03-29T05:13:36.939Z,1.40
2023-03-29T05:16:04.910Z,1.75
2023-03-29T05:18:31.885Z,1.55
2023-03-29T05:21:06.819Z,1.50
2023-03-29T05:23:34.348Z,1.37
2023-03-29T05:26:00.933Z,1.58
2023-03-29T05:28:29.229Z,1.40
2023-03-29T05:31:01.389Z,1.40
2023-03-29T05:33:28.763Z,1.38
2023-03-29T05:36:11.321Z,1.60
2023-03-29T05:38:41.881Z,1.40
2023-03-29T05:41:08.648Z,1.48
2023-03-29T05:43:37.402Z,1.45
2023-03-29T05:46:04.165Z,1.48
2023-03-29T05:48:33.244Z,1.35
2023-03-29T05:50:59.917Z,1.42
2023-03-29T05:53:27.505Z,1.60
2023-03-29T05:55:54.343Z,1.15
2023-03-29T05:58:21.545Z,1.40
2023-03-29T06:00:51.319Z,1.48
2023-03-29T06:03:21.625Z,1.58
2023-03-29T06:06:03.057Z,1.45
2023-03-29T06:08:30.178Z,1.42
2023-03-29T06:11:04.603Z,1.30
2023-03-29T06:13:38.478Z,1.30
2023-03-29T06:16:08.592Z,1.40
2023-03-29T06:18:40.353Z,1.60
2023-03-29T06:21:09.263Z,1.40
2023-03-29T06:23:36.626Z,1.67
2023-03-29T06:26:04.158Z,1.60
2023-03-29T06:28:30.665Z,1.20
2023-03-29T06:31:04.311Z,2.10
2023-03-29T06:33:34.203Z,1.90
2023-03-29T06:36:01.080Z,1.90
2023-03-29T06:38:28.572Z,1.50
2023-03-29T06:41:10.286Z,1.40
2023-03-29T06:43:37.657Z,1.60
2023-03-29T06:46:04.615Z,1.42
2023-03-29T06:48:31.908Z,1.67
2023-03-29T06:50:58.581Z,1.60
2023-03-29T06:53:26.331Z,1.70
2023-03-29T06:55:53.022Z,1.67
2023-03-29T06:58:19.754Z,1.67
2023-03-29T07:00:46.890Z,1.70
2023-03-29T07:03:22.317Z,1.75
2023-03-29T07:05:51.815Z,1.63
2023-03-29T07:08:20.956Z,1.67
2023-03-29T07:10:52.891Z,1.83
2023-03-29T07:13:19.604Z,1.85
2023-03-29T07:15:46.603Z,1.80
2023-03-29T07:18:13.275Z,1.75
2023-03-29T07:20:47.610Z,1.90
2023-03-29T07:23:14.324Z,1.80
2023-03-29T07:25:44.892Z,1.88
2023-03-29T07:28:11.732Z,1.90
2023-03-29T07:30:40.105Z,2.03
2023-03-29T07:33:06.672Z,1.70
2023-03-29T07:35:45.322Z,1.83
2023-03-29T07:38:11.817Z,1.85
2023-03-29T07:40:38.359Z,1.90
2023-03-29T07:43:09.192Z,1.60
2023-03-29T07:45:35.781Z,1.90
2023-03-29T07:48:04.919Z,1.98
2023-03-29T07:50:32.786Z,1.90
2023-03-29T07:53:00.992Z,1.95
2023-03-29T07:55:27.633Z,2.13
2023-03-29T07:57:54.534Z,1.90
2023-03-29T08:00:24.964Z,2.25
2023-03-29T08:02:52.678Z,2.28
2023-03-29T08:05:33.478Z,2.05
2023-03-29T08:08:08.057Z,2.13
2023-03-29T08:10:36.048Z,2.03
2023-03-29T08:13:07.448Z,1.92
2023-03-29T08:15:35.431Z,2.25
2023-03-29T08:18:02.074Z,1.73
2023-03-29T08:20:28.663Z,1.98
2023-03-29T08:22:55.183Z,1.90
2023-03-29T08:25:24.524Z,1.63
2023-03-29T08:27:51.469Z,1.92
2023-03-29T08:30:18.185Z,1.83
2023-03-29T08:32:46.936Z,1.70
2023-03-29T08:35:15.532Z,2.05
2023-03-29T08:37:42.211Z,1.80
2023-03-29T08:40:18.554Z,2.00
2023-03-29T08:43:13.220Z,1.50
2023-03-29T08:46:03.418Z,1.60
2023-03-29T08:48:33.951Z,1.70
2023-03-29T08:51:09.928Z,1.85
2023-03-29T08:53:45.151Z,1.50
2023-03-29T08:56:15.915Z,1.88
2023-03-29T08:58:45.188Z,2.00
2023-03-29T09:01:12.034Z,2.40
2023-03-29T09:03:48.123Z,1.90
2023-03-29T09:06:17.613Z,2.05
2023-03-29T09:08:55.583Z,1.80
2023-03-29T09:11:25.085Z,1.90
2023-03-29T09:14:02.355Z,1.80
2023-03-29T09:16:32.069Z,1.65
2023-03-29T09:19:21.028Z,2.00
2023-03-29T09:21:56.514Z,1.65
2023-03-29T09:24:37.625Z,1.80
2023-03-29T09:27:15.264Z,1.40
2023-03-29T09:30:15.489Z,1.80
2023-03-29T09:32:51.746Z,1.52
2023-03-29T09:35:53.490Z,1.63
2023-03-29T09:38:22.172Z,1.70
2023-03-29T09:41:02.542Z,1.48
2023-03-29T09:43:36.278Z,1.55
2023-03-29T09:46:06.646Z,1.77
2023-03-29T09:48:39.965Z,1.63
2023-03-29T09:51:13.221Z,1.70
2023-03-29T09:53:39.783Z,1.50
2023-03-29T09:56:08.545Z,1.35
2023-03-29T09:58:36.275Z,1.55
2023-03-29T10:01:08.821Z,1.60
2023-03-29T10:03:37.083Z,1.77
2023-03-29T10:06:08.155Z,1.40
2023-03-29T10:08:47.965Z,1.52
2023-03-29T10:11:23.725Z,1.80
2023-03-29T10:16:29.858Z,1.48
2023-03-29T10:18:56.552Z,1.83
2023-03-29T10:21:23.808Z,1.90
2023-03-29T10:24:01.489Z,1.70
2023-03-29T10:26:33.166Z,1.77
2023-03-29T10:29:01.867Z,1.80
2023-03-29T10:31:31.676Z,1.75
2023-03-29T10:34:02.868Z,1.80
2023-03-29T10:36:29.567Z,1.83
2023-03-29T10:39:05.744Z,1.65
2023-03-29T10:41:34.951Z,1.52
2023-03-29T10:44:02.205Z,1.58
2023-03-29T10:46:30.405Z,1.20
2023-03-29T10:48:59.289Z,1.20
2023-03-29T10:51:34.590Z,1.25
2023-03-29T10:54:03.336Z,1.20
2023-03-29T10:56:42.543Z,1.20
2023-03-29T10:59:24.518Z,1.20
2023-03-29T11:02:14.786Z,1.20
2023-03-29T11:05:00.305Z,1.45
2023-03-29T11:07:31.852Z,1.08
2023-03-29T11:10:31.661Z,1.08
2023-03-29T11:13:20.179Z,1.10
2023-03-29T11:16:28.648Z,1.20
2023-03-29T11:19:20.068Z,1.15
2023-03-29T11:21:46.476Z,1.20
2023-03-29T11:24:37.374Z,1.15
2023-03-29T11:27:33.161Z,1.00
2023-03-29T11:30:04.010Z,1.00
2023-03-29T11:32:55.594Z,1.33
2023-03-29T11:35:59.506Z,1.10
2023-03-29T11:38:45.163Z,1.05
2023-03-29T11:41:20.165Z,1.15
2023-03-29T11:44:05.679Z,1.30
2023-03-29T11:46:44.387Z,1.10
2023-03-29T11:49:19.513Z,0.90
2023-03-29T11:51:55.447Z,0.90
2023-03-29T11:54:44.707Z,0.93
2023-03-29T11:57:15.661Z,0.85
2023-03-29T11:59:52.186Z,1.00
2023-03-29T12:02:37.752Z,0.90
2023-03-29T12:05:15.286Z,0.90
2023-03-29T12:07:55.375Z,0.90
2023-03-29T12:10:29.288Z,0.70
2023-03-29T12:13:16.584Z,0.73
2023-03-29T12:15:49.812Z,0.60
2023-03-29T12:18:42.714Z,0.80
2023-03-29T12:21:23.955Z,0.68
2023-03-29T12:23:51.904Z,0.77
2023-03-29T12:26:38.021Z,0.80
2023-03-29T12:31:44.349Z,0.73
2023-03-29T12:34:31.124Z,0.82
2023-03-29T12:37:16.745Z,0.65
2023-03-29T12:39:45.705Z,0.82
2023-03-29T12:42:21.101Z,0.80
2023-03-29T12:44:57.529Z,0.70
2023-03-29T12:47:26.723Z,0.50
2023-03-29T12:50:00.495Z,0.70
2023-03-29T12:52:34.962Z,0.82
2023-03-29T12:55:18.634Z,0.50
2023-03-29T12:58:02.616Z,0.50
2023-03-29T13:00:43.789Z,0.77
2023-03-29T13:03:35.417Z,0.80
2023-03-29T13:06:09.730Z,0.80
2023-03-29T13:08:44.802Z,0.68
2023-03-29T13:11:29.486Z,0.85
2023-03-29T13:13:57.390Z,0.80
2023-03-29T13:16:50.352Z,0.77
2023-03-29T13:19:28.961Z,0.82
2023-03-29T13:22:25.778Z,0.90
2023-03-29T13:25:02.262Z,0.80
2023-03-29T13:28:00.328Z,0.70
2023-03-29T13:30:55.454Z,0.80
2023-03-29T13:33:50.732Z,0.73
2023-03-29T13:37:06.897Z,0.68
2023-03-29T13:39:40.621Z,0.68
2023-03-29T13:42:21.717Z,0.50
2023-03-29T13:44:51.536Z,0.52
2023-03-29T13:47:33.174Z,0.77
2023-03-29T13:50:21.504Z,0.47
2023-03-29T13:53:12.310Z,0.70
2023-03-29T13:55:49.331Z,0.60
2023-03-29T13:58:45.757Z,0.88
2023-03-29T14:01:35.650Z,0.52
2023-03-29T14:04:05.818Z,0.90
2023-03-29T14:06:35.062Z,0.70
2023-03-29T14:09:08.556Z,0.80
2023-03-29T14:11:38.323Z,0.80
2023-03-29T14:14:08.180Z,0.70
2023-03-29T14:16:40.483Z,1.17
2023-03-29T14:19:17.511Z,0.80
2023-03-29T14:21:46.502Z,0.98
2023-03-29T14:24:21.593Z,0.77
2023-03-29T14:26:50.416Z,0.70
2023-03-29T14:29:18.332Z,1.00
2023-03-29T14:31:45.029Z,0.80
2023-03-29T14:34:14.648Z,0.80
2023-03-29T14:36:42.958Z,0.80
2023-03-29T14:39:20.334Z,0.70
2023-03-29T14:41:52.849Z,0.85
2023-03-29T14:44:22.599Z,0.80
2023-03-29T14:46:49.337Z,0.90
2023-03-29T14:49:18.428Z,0.90
2023-03-29T14:51:47.305Z,0.55
2023-03-29T14:54:23.894Z,0.70
2023-03-29T14:57:02.392Z,0.85
2023-03-29T14:59:38.970Z,0.88
2023-03-29T15:02:25.374Z,1.10
2023-03-29T15:05:05.764Z,0.63
2023-03-29T15:07:38.188Z,0.73
2023-03-29T15:10:07.384Z,0.60
2023-03-29T15:12:35.953Z,1.30
2023-03-29T15:15:08.210Z,2.00
2023-03-29T15:17:50.528Z,2.30
2023-03-29T15:20:28.476Z,1.63
2023-03-29T15:23:04.100Z,1.52
2023-03-29T15:25:36.784Z,1.17
2023-03-29T15:28:04.117Z,1.17
2023-03-29T15:30:39.605Z,1.20
2023-03-29T15:33:20.150Z,1.00
2023-03-29T15:35:50.626Z,0.80
2023-03-29T15:38:17.806Z,0.93
2023-03-29T15:40:44.414Z,1.15
2023-03-29T15:43:15.284Z,0.95
2023-03-29T15:45:41.801Z,0.90
2023-03-29T15:48:15.576Z,1.10
2023-03-29T15:50:44.458Z,1.10
2023-03-29T15:53:15.525Z,1.20
2023-03-29T15:55:49.727Z,1.10
2023-03-29T15:58:19.205Z,1.27
2023-03-29T16:00:56.912Z,0.95
2023-03-29T16:03:24.623Z,0.95
2023-03-29T16:05:54.161Z,1.10
2023-03-29T16:08:22.353Z,1.23
2023-03-29T16:10:49.549Z,1.15
2023-03-29T16:13:16.362Z,1.20
2023-03-29T16:15:44.723Z,0.98
2023-03-29T16:18:11.352Z,1.00
2023-03-29T16:20:38.341Z,1.20
2023-03-29T16:23:11.237Z,1.40
2023-03-29T16:25:40.543Z,1.30
2023-03-29T16:28:09.122Z,1.35
2023-03-29T16:30:37.590Z,1.48
2023-03-29T16:33:08.349Z,1.13
2023-03-29T16:35:42.294Z,1.30
2023-03-29T16:38:09.328Z,1.58
2023-03-29T16:40:36.541Z,1.40
2023-03-29T16:43:04.084Z,1.67
2023-03-29T16:45:30.811Z,2.15
2023-03-29T16:47:57.650Z,2.38
2023-03-29T16:50:26.177Z,5.70
2023-03-29T16:52:53.096Z,2.92
2023-03-29T16:55:19.705Z,2.30
2023-03-29T16:57:49.420Z,2.40
2023-03-29T17:00:19.560Z,2.00
2023-03-29T17:02:49.747Z,1.98
2023-03-29T17:05:17.737Z,1.63
2023-03-29T17:07:44.883Z,1.40
2023-03-29T17:10:12.443Z,1.50
2023-03-29T17:12:39.505Z,1.63
2023-03-29T17:15:09.404Z,1.63
2023-03-29T17:17:37.482Z,1.75
2023-03-29T17:20:08.600Z,1.60
2023-03-29T17:22:36.004Z,2.00
2023-03-29T17:25:03.831Z,1.65
2023-03-29T17:27:34.931Z,1.83
2023-03-29T17:30:01.810Z,1.75
2023-03-29T17:32:28.305Z,1.65
2023-03-29T17:34:56.633Z,1.58
2023-03-29T17:37:23.220Z,1.38
2023-03-29T17:39:52.448Z,1.80
2023-03-29T17:42:20.734Z,1.52
2023-03-29T17:44:47.241Z,1.40
2023-03-29T17:47:13.773Z,1.70
2023-03-29T17:49:40.701Z,1.60
2023-03-29T17:52:09.249Z,1.52
2023-03-29T17:54:35.755Z,1.45
2023-03-29T17:57:02.481Z,1.58
2023-03-29T17:59:29.021Z,1.73
2023-03-29T18:01:55.831Z,1.80
2023-03-29T18:04:31.112Z,1.45
2023-03-29T18:07:00.216Z,2.10
2023-03-29T18:09:30.617Z,2.10
2023-03-29T18:11:59.427Z,1.90
2023-03-29T18:14:26.332Z,1.45
2023-03-29T18:16:55.813Z,2.28
2023-03-29T18:19:26.242Z,1.98
2023-03-29T18:21:52.986Z,1.70
2023-03-29T18:24:19.660Z,1.85
2023-03-29T18:26:48.468Z,1.98
2023-03-29T18:29:15.519Z,2.45
2023-03-29T18:31:42.897Z,2.10
2023-03-29T18:34:11.832Z,1.90
2023-03-29T18:36:38.575Z,2.00
2023-03-29T18:39:05.878Z,1.63
2023-03-29T18:41:43.483Z,1.63
2023-03-29T18:44:14.105Z,1.73
2023-03-29T18:46:40.982Z,1.88
2023-03-29T18:49:09.519Z,1.58
2023-03-29T18:51:36.258Z,1.60
2023-03-29T18:54:04.341Z,1.50
2023-03-29T18:56:31.928Z,1.63
2023-03-29T18:58:58.624Z,1.40
2023-03-29T19:01:25.291Z,1.90
2023-03-29T19:03:52.181Z,1.48
2023-03-29T19:06:19.241Z,1.90
2023-03-29T19:08:45.795Z,1.90
2023-03-29T19:11:14.538Z,2.08
2023-03-29T19:13:41.506Z,2.28
2023-03-29T19:16:08.484Z,1.92
2023-03-29T19:18:37.156Z,1.92
2023-03-29T19:21:04.007Z,2.15
2023-03-29T19:23:30.839Z,1.75
2023-03-29T19:26:02.867Z,2.08
2023-03-29T19:28:30.096Z,2.42
2023-03-29T19:30:58.987Z,2.08
2023-03-29T19:33:27.318Z,3.00
2023-03-29T19:35:54.104Z,2.88
2023-03-29T19:38:21.490Z,2.92
2023-03-29T19:40:49.884Z,2.40
2023-03-29T19:43:17.002Z,2.83
2023-03-29T19:45:44.774Z,2.35
2023-03-29T19:48:22.915Z,2.58
2023-03-29T19:50:50.455Z,2.08
2023-03-29T19:53:16.982Z,2.42
2023-03-29T19:55:45.438Z,2.05
2023-03-29T19:58:12.951Z,2.67
2023-03-29T20:00:40.026Z,2.15
2023-03-29T20:03:12.206Z,2.30
2023-03-29T20:05:38.967Z,2.40
2023-03-29T20:08:06.022Z,2.13
2023-03-29T20:10:35.241Z,2.50
2023-03-29T20:13:03.184Z,1.80
2023-03-29T20:15:29.720Z,1.60
2023-03-29T20:17:59.366Z,2.65
2023-03-29T20:20:29.956Z,2.00
2023-03-29T20:23:04.904Z,2.20
2023-03-29T20:25:36.791Z,1.70
2023-03-29T20:28:06.560Z,1.77
2023-03-29T20:30:33.290Z,2.33
2023-03-29T20:32:59.799Z,2.38
2023-03-29T20:35:31.426Z,2.50
2023-03-29T20:37:57.963Z,2.08
2023-03-29T20:40:24.887Z,2.20
2023-03-29T20:42:53.185Z,2.45
2023-03-29T20:45:19.771Z,2.15
2023-03-29T20:47:58.027Z,2.05
2023-03-29T20:50:28.688Z,2.17
2023-03-29T20:53:04.327Z,2.42
2023-03-29T20:55:33.295Z,2.78
2023-03-29T20:58:00.749Z,2.50
2023-03-29T21:00:30.243Z,2.70
2023-03-29T21:03:00.493Z,2.65
2023-03-29T21:05:28.941Z,2.90
2023-03-29T21:07:57.474Z,2.28
2023-03-29T21:10:25.524Z,2.45
2023-03-29T21:12:54.449Z,2.05
2023-03-29T21:15:23.301Z,1.73
2023-03-29T21:17:49.802Z,2.53
2023-03-29T21:20:16.444Z,2.00
2023-03-29T21:22:47.528Z,1.70
2023-03-29T21:25:15.866Z,1.98
2023-03-29T21:27:43.058Z,2.45
2023-03-29T21:30:10.478Z,2.83
2023-03-29T21:32:36.994Z,2.10
2023-03-29T21:35:06.457Z,2.05
2023-03-29T21:37:32.980Z,2.03
2023-03-29T21:40:05.720Z,2.60
2023-03-29T21:42:33.653Z,2.58
2023-03-29T21:45:01.610Z,2.30
2023-03-29T21:47:28.434Z,2.10
2023-03-29T21:49:55.289Z,2.00
2023-03-29T21:52:22.397Z,1.90
2023-03-29T21:54:48.862Z,1.85
2023-03-29T21:57:17.689Z,2.03
2023-03-29T21:59:44.477Z,2.08
2023-03-29T22:02:11.172Z,2.30
2023-03-29T22:04:39.590Z,2.40
2023-03-29T22:07:06.519Z,2.35
2023-03-29T22:09:35.042Z,1.83
2023-03-29T22:12:02.415Z,1.95
2023-03-29T22:14:30.252Z,2.47
2023-03-29T22:16:58.945Z,1.92
2023-03-29T22:19:31.720Z,1.90
2023-03-29T22:22:01.455Z,2.13
2023-03-29T22:24:29.129Z,2.47
2023-03-29T22:27:04.416Z,2.05
2023-03-29T22:29:31.070Z,1.77
2023-03-29T22:31:57.647Z,2.03
2023-03-29T22:34:24.315Z,1.92
2023-03-29T22:36:51.669Z,2.08
2023-03-29T22:39:20.085Z,2.08
2023-03-29T22:41:48.630Z,2.72
2023-03-29T22:44:15.414Z,2.10
2023-03-29T22:46:42.498Z,2.80
2023-03-29T22:49:15.551Z,2.33
2023-03-29T22:51:42.040Z,2.33
2023-03-29T22:54:08.576Z,2.80
2023-03-29T22:56:37.388Z,2.03
2023-03-29T22:59:04.558Z,2.72
2023-03-29T23:01:31.106Z,2.30
2023-03-29T23:03:57.931Z,2.45
2023-03-29T23:06:24.505Z,2.28
2023-03-29T23:08:51.031Z,2.28
2023-03-29T23:11:24.095Z,2.33
2023-03-29T23:13:50.607Z,2.50
2023-03-29T23:16:17.238Z,2.22
2023-03-29T23:18:44.035Z,2.08
2023-03-29T23:21:12.911Z,2.45
2023-03-29T23:23:39.777Z,2.42
2023-03-29T23:26:13.539Z,2.35
2023-03-29T23:28:41.127Z,2.35
2023-03-29T23:31:10.594Z,2.45
2023-03-29T23:33:40.484Z,1.92
2023-03-29T23:36:19.113Z,2.50
2023-03-29T23:38:48.658Z,1.98
2023-03-29T23:41:17.704Z,2.08
2023-03-29T23:43:47.235Z,2.35
2023-03-29T23:46:16.858Z,2.03
2023-03-29T23:48:45.971Z,1.80
2023-03-29T23:51:13.008Z,2.38
2023-03-29T23:53:47.883Z,2.30
2023-03-29T23:56:14.507Z,2.00
2023-03-29T23:58:41.236Z,2.17
